TimeEST,TemperatureF,Dew PointF,Humidity,Sea Level PressureIn,VisibilityMPH,Wind Direction,Wind SpeedMPH,Gust SpeedMPH,PrecipitationIn,Events,Conditions,WindDirDegrees,DateUTC
12:52 AM,25.0,18.0,75,30.10,10.0,NNE,9.2,-,N/A,,Overcast,20,2013-03-02 05:52:00
1:52 AM,25.0,17.1,72,30.10,10.0,North,10.4,-,N/A,,Overcast,360,2013-03-02 06:52:00
2:52 AM,25.0,17.1,72,30.09,10.0,North,3.5,-,N/A,,Overcast,360,2013-03-02 07:52:00
3:52 AM,25.0,17.1,72,30.08,10.0,NW,5.8,-,N/A,,Overcast,320,2013-03-02 08:52:00
4:52 AM,25.0,17.1,72,30.08,10.0,North,9.2,-,N/A,,Overcast,350,2013-03-02 09:52:00
5:52 AM,25.0,18.0,75,30.08,9.0,North,5.8,-,0.00,Snow,Light Snow,350,2013-03-02 10:52:00
6:52 AM,25.0,17.1,72,30.08,9.0,North,9.2,-,0.00,Snow,Light Snow,350,2013-03-02 11:52:00
7:52 AM,25.0,18.0,75,30.09,7.0,North,8.1,-,0.00,Snow,Light Snow,350,2013-03-02 12:52:00
8:52 AM,25.0,19.0,78,30.10,4.0,NNW,9.2,-,0.00,Snow,Light Snow,330,2013-03-02 13:52:00
9:52 AM,25.0,19.0,78,30.09,5.0,NNW,10.4,-,0.00,Snow,Light Snow,340,2013-03-02 14:52:00
10:52 AM,25.0,18.0,75,30.09,6.0,NNW,12.7,-,0.00,Snow,Light Snow,340,2013-03-02 15:52:00
11:52 AM,26.1,19.0,75,30.09,10.0,NNW,10.4,-,0.00,Snow,Light Snow,340,2013-03-02 16:52:00
12:03 PM,26.6,19.4,74,30.06,9.0,NNW,8.1,-,N/A,Snow,Light Snow,340,2013-03-02 17:03:00
12:52 PM,26.1,18.0,71,30.08,9.0,NNW,10.4,-,0.00,Snow,Light Snow,340,2013-03-02 17:52:00
1:52 PM,27.0,17.1,66,30.07,10.0,North,12.7,-,0.00,,Overcast,360,2013-03-02 18:52:00
2:52 PM,27.0,17.1,66,30.07,10.0,North,9.2,-,N/A,,Overcast,360,2013-03-02 19:52:00
3:52 PM,26.1,16.0,66,30.07,10.0,North,8.1,-,N/A,,Overcast,360,2013-03-02 20:52:00
4:52 PM,26.1,17.1,69,30.07,10.0,NNW,8.1,-,N/A,,Overcast,330,2013-03-02 21:52:00
5:52 PM,26.6,15.8,64,30.06,10.0,NNW,8.1,-,N/A,,Overcast,330,2013-03-02 22:52:00
6:52 PM,25.0,16.0,69,30.10,10.0,NNW,8.1,-,N/A,,Overcast,340,2013-03-02 23:52:00
7:52 PM,25.0,16.0,69,30.09,10.0,NNW,11.5,-,N/A,,Overcast,340,2013-03-03 00:52:00
8:52 PM,24.1,16.0,71,30.09,10.0,WNW,6.9,-,N/A,,Overcast,300,2013-03-03 01:52:00
9:52 PM,24.1,16.0,71,30.10,10.0,NNW,8.1,-,N/A,,Overcast,340,2013-03-03 02:52:00
10:52 PM,24.1,15.1,69,30.09,10.0,North,5.8,-,N/A,,Overcast,360,2013-03-03 03:52:00
11:52 PM,23.0,14.0,68,30.06,10.0,NNW,5.8,-,N/A,,Overcast,340,2013-03-03 04:52:00